createdAt,value
2017-08-25T03:31:37.832Z,20.50
2017-08-25T03:34:05.493Z,20.20
2017-08-25T03:36:33.165Z,20.30
2017-08-25T03:39:00.784Z,20.40
2017-08-25T03:41:28.455Z,20.50
2017-08-25T03:43:56.116Z,20.80
2017-08-25T03:46:24.495Z,20.70
2017-08-25T03:48:52.162Z,20.70
2017-08-25T03:51:20.185Z,20.70
2017-08-25T03:53:47.815Z,20.50
2017-08-25T03:56:15.469Z,20.40
2017-08-25T03:58:43.130Z,20.40
2017-08-25T04:01:10.796Z,20.60
2017-08-25T04:03:38.478Z,20.80
2017-08-25T04:06:06.133Z,20.80
2017-08-25T04:08:34.216Z,20.80
2017-08-25T04:11:01.850Z,20.70
2017-08-25T04:13:29.498Z,20.60
2017-08-25T04:15:57.255Z,20.80
2017-08-25T04:18:24.903Z,20.90
2017-08-25T04:20:52.594Z,20.90
2017-08-25T04:23:20.238Z,20.80
2017-08-25T04:25:48.315Z,20.80
2017-08-25T04:28:15.957Z,20.70
2017-08-25T04:30:44.146Z,20.70
2017-08-25T04:33:11.776Z,20.70
2017-08-25T04:35:39.404Z,20.70
2017-08-25T04:38:07.057Z,20.70
2017-08-25T04:40:34.684Z,20.80
2017-08-25T04:43:02.341Z,20.80
2017-08-25T04:45:30.007Z,20.80
2017-08-25T04:47:57.669Z,20.70
2017-08-25T04:50:25.396Z,20.70
2017-08-25T04:52:53.053Z,20.60
2017-08-25T04:55:20.796Z,20.60
2017-08-25T04:57:48.467Z,20.60
2017-08-25T05:00:16.118Z,20.60
2017-08-25T05:02:43.974Z,20.60
2017-08-25T05:05:11.708Z,20.70
2017-08-25T05:07:39.345Z,20.80
2017-08-25T05:10:07.466Z,21.00
2017-08-25T05:12:35.095Z,21.10
2017-08-25T05:15:03.646Z,21.20
2017-08-25T05:17:32.042Z,21.30
2017-08-25T05:19:59.849Z,21.30
2017-08-25T05:22:27.465Z,21.20
2017-08-25T05:24:55.665Z,21.40
2017-08-25T05:27:23.299Z,21.40
2017-08-25T05:29:50.962Z,21.30
2017-08-25T05:32:18.607Z,21.20
2017-08-25T05:34:46.373Z,21.20
2017-08-25T05:37:14.505Z,21.20
2017-08-25T05:39:42.171Z,21.30
2017-08-25T05:42:09.954Z,21.30
2017-08-25T05:44:38.167Z,21.30
2017-08-25T05:47:05.999Z,21.40
2017-08-25T05:49:33.646Z,21.50
2017-08-25T05:52:01.766Z,21.50
2017-08-25T05:54:29.597Z,21.50
2017-08-25T05:56:57.243Z,21.60
2017-08-25T05:59:25.405Z,21.60
2017-08-25T06:01:53.057Z,21.60
2017-08-25T06:04:20.717Z,21.50
2017-08-25T06:06:48.834Z,21.60
2017-08-25T06:09:16.460Z,21.70
2017-08-25T06:11:44.103Z,21.90
2017-08-25T06:14:12.167Z,22.10
2017-08-25T06:16:39.833Z,22.20
2017-08-25T06:19:07.973Z,22.30
2017-08-25T06:21:36.068Z,22.50
2017-08-25T06:24:03.706Z,22.60
2017-08-25T06:26:31.352Z,22.60
2017-08-25T06:28:59.456Z,22.80
2017-08-25T06:31:27.158Z,23.00
2017-08-25T06:33:54.786Z,23.10
2017-08-25T06:36:22.849Z,23.30
2017-08-25T06:38:50.475Z,23.30
2017-08-25T06:41:18.129Z,23.40
2017-08-25T06:43:46.152Z,23.40
2017-08-25T06:46:13.813Z,23.40
2017-08-25T06:48:41.466Z,23.60
2017-08-25T06:51:09.552Z,23.70
2017-08-25T06:53:37.215Z,23.90
2017-08-25T06:56:04.884Z,24.00
2017-08-25T06:58:32.890Z,24.10
2017-08-25T07:01:00.551Z,24.30
2017-08-25T07:03:28.190Z,24.40
2017-08-25T07:05:56.338Z,24.30
2017-08-25T07:08:23.976Z,24.10
2017-08-25T07:10:51.628Z,23.90
2017-08-25T07:13:19.630Z,23.80
2017-08-25T07:15:48.849Z,23.50
2017-08-25T07:18:16.485Z,23.50
2017-08-25T07:20:44.564Z,23.50
2017-08-25T07:23:12.488Z,23.50
2017-08-25T07:25:40.137Z,23.60
2017-08-25T07:28:08.169Z,23.70
2017-08-25T07:30:35.827Z,23.80
2017-08-25T07:33:04.272Z,23.80
2017-08-25T07:35:32.381Z,23.70
2017-08-25T07:38:00.097Z,23.60
2017-08-25T07:40:27.766Z,23.70
2017-08-25T07:42:55.843Z,23.60
2017-08-25T07:45:23.633Z,23.80
2017-08-25T07:47:52.043Z,24.60
2017-08-25T07:50:20.069Z,24.60
2017-08-25T07:52:47.874Z,25.00
2017-08-25T07:55:15.891Z,25.30
2017-08-25T08:00:03.843Z,25.60
2017-08-25T08:02:31.965Z,25.70
2017-08-25T08:04:59.612Z,25.80
2017-08-25T08:07:27.687Z,26.00
2017-08-25T08:09:55.333Z,25.80
2017-08-25T08:12:23.938Z,26.00
2017-08-25T08:14:51.935Z,26.40
2017-08-25T08:17:19.584Z,26.70
2017-08-25T08:19:47.241Z,26.60
2017-08-25T08:22:15.274Z,26.60
2017-08-25T08:24:42.903Z,26.80
2017-08-25T08:27:10.554Z,26.70
2017-08-25T08:29:38.653Z,26.80
2017-08-25T08:32:06.284Z,27.00
2017-08-25T08:34:33.910Z,27.20
2017-08-25T08:37:01.893Z,27.10
2017-08-25T08:39:29.534Z,27.40
2017-08-25T08:41:57.172Z,27.60
2017-08-25T08:44:25.269Z,28.00
2017-08-25T08:46:52.909Z,27.60
2017-08-25T08:49:20.598Z,27.20
2017-08-25T08:51:48.665Z,27.70
2017-08-25T08:54:16.296Z,28.60
2017-08-25T08:56:43.946Z,29.60
2017-08-25T08:59:12.041Z,29.70
2017-08-25T09:01:39.677Z,29.10
2017-08-25T09:04:07.314Z,29.70
2017-08-25T09:06:36.248Z,31.00
2017-08-25T09:09:03.879Z,32.30
2017-08-25T09:11:31.484Z,33.00
2017-08-25T09:13:59.536Z,33.90
2017-08-25T09:16:27.150Z,34.80
2017-08-25T09:18:54.766Z,35.70
2017-08-25T09:21:22.815Z,36.20
2017-08-25T09:23:50.409Z,36.80
2017-08-25T09:26:18.003Z,37.70
2017-08-25T09:28:46.004Z,38.20
2017-08-25T09:31:13.619Z,38.90
2017-08-25T09:33:41.218Z,39.10
2017-08-25T09:36:09.199Z,39.60
2017-08-25T09:38:38.022Z,40.50
2017-08-25T09:41:05.635Z,41.30
2017-08-25T09:43:33.726Z,41.70
2017-08-25T09:46:01.352Z,41.40
2017-08-25T09:48:28.982Z,41.40
2017-08-25T09:50:57.033Z,42.40
2017-08-25T09:53:24.643Z,43.20
2017-08-25T09:55:52.222Z,43.70
2017-08-25T09:58:20.231Z,43.10
2017-08-25T10:00:47.827Z,43.00
2017-08-25T10:03:15.442Z,43.80
2017-08-25T10:05:43.516Z,43.20
2017-08-25T10:08:14.024Z,43.80
2017-08-25T10:10:41.627Z,43.60
2017-08-25T10:13:09.669Z,41.80
2017-08-25T10:15:37.418Z,43.10
2017-08-25T10:18:05.070Z,43.40
2017-08-25T10:20:32.714Z,42.30
2017-08-25T10:23:00.322Z,41.60
2017-08-25T10:25:27.935Z,42.60
2017-08-25T10:27:55.551Z,43.00
2017-08-25T10:30:23.167Z,43.10
2017-08-25T10:32:50.833Z,43.20
2017-08-25T10:35:30.913Z,43.70
2017-08-25T10:38:10.275Z,44.80
2017-08-25T10:40:50.104Z,45.60
2017-08-25T10:43:29.387Z,46.80
2017-08-25T10:45:57.017Z,47.60
2017-08-25T10:48:24.631Z,48.00
2017-08-25T10:50:52.329Z,48.00
2017-08-25T10:53:19.942Z,48.10
2017-08-25T10:55:47.559Z,48.00
2017-08-25T10:58:15.217Z,48.00
2017-08-25T11:00:42.819Z,48.80
2017-08-25T11:03:10.798Z,49.10
2017-08-25T11:05:38.582Z,49.30
2017-08-25T11:08:06.198Z,49.50
2017-08-25T11:10:34.143Z,48.70
2017-08-25T11:13:01.976Z,49.30
2017-08-25T11:15:29.573Z,49.40
2017-08-25T11:17:57.972Z,49.50
2017-08-25T11:20:25.591Z,49.40
2017-08-25T11:22:53.230Z,49.30
2017-08-25T11:25:20.839Z,48.30
2017-08-25T11:27:48.813Z,49.00
2017-08-25T11:30:16.420Z,49.40
2017-08-25T11:32:44.058Z,48.50
2017-08-25T11:35:12.074Z,48.00
2017-08-25T11:37:40.160Z,48.50
2017-08-25T11:40:07.893Z,48.10
2017-08-25T11:42:35.874Z,48.60
2017-08-25T11:45:03.495Z,47.60
2017-08-25T11:47:31.394Z,48.50
2017-08-25T11:49:59.478Z,49.00
2017-08-25T11:52:27.079Z,49.70
2017-08-25T11:54:54.691Z,48.50
2017-08-25T11:57:23.024Z,48.50
2017-08-25T11:59:50.638Z,49.20
2017-08-25T12:02:18.246Z,48.70
2017-08-25T12:04:46.527Z,49.00
2017-08-25T12:07:14.241Z,48.80
2017-08-25T12:09:41.926Z,47.60
2017-08-25T12:12:13.613Z,45.50
2017-08-25T12:14:41.213Z,44.90
2017-08-25T12:17:08.833Z,44.00
2017-08-25T12:19:37.059Z,43.30
2017-08-25T12:22:04.668Z,42.60
2017-08-25T12:24:32.261Z,41.20
2017-08-25T12:27:00.298Z,40.30
2017-08-25T12:29:27.964Z,39.30
2017-08-25T12:31:55.892Z,38.60
2017-08-25T12:34:24.610Z,38.30
2017-08-25T12:36:52.218Z,38.20
2017-08-25T12:39:19.814Z,37.40
2017-08-25T12:41:47.787Z,37.10
2017-08-25T12:44:15.384Z,37.20
2017-08-25T12:46:42.982Z,37.10
2017-08-25T12:49:12.027Z,37.00
2017-08-25T12:51:39.697Z,35.90
2017-08-25T12:54:08.806Z,35.40
2017-08-25T12:56:37.648Z,35.20
2017-08-25T12:59:05.403Z,34.70
2017-08-25T13:01:33.026Z,34.50
2017-08-25T13:04:01.093Z,34.50
2017-08-25T13:06:28.698Z,34.50
2017-08-25T13:08:56.954Z,34.20
2017-08-25T13:11:25.012Z,34.20
2017-08-25T13:13:52.666Z,34.10
2017-08-25T13:16:20.494Z,33.80
2017-08-25T13:18:48.449Z,34.00
2017-08-25T13:21:16.062Z,33.90
2017-08-25T13:23:43.681Z,34.10
2017-08-25T13:26:11.317Z,33.70
2017-08-25T13:28:38.927Z,33.60
2017-08-25T13:31:06.934Z,33.40
2017-08-25T13:33:34.544Z,33.50
2017-08-25T13:36:02.161Z,33.50
2017-08-25T13:38:29.791Z,33.30
2017-08-25T13:40:57.398Z,33.40
2017-08-25T13:43:25.779Z,33.00
2017-08-25T13:45:53.386Z,32.90
2017-08-25T13:48:21.020Z,33.20
2017-08-25T13:50:48.623Z,33.30
2017-08-25T13:53:16.230Z,33.40
2017-08-25T13:55:43.863Z,33.20
2017-08-25T13:58:11.462Z,32.90
2017-08-25T14:00:39.087Z,32.70
2017-08-25T14:03:06.703Z,32.40
2017-08-25T14:05:34.327Z,32.30
2017-08-25T14:08:02.064Z,32.20
2017-08-25T14:10:30.187Z,32.00
2017-08-25T14:12:57.845Z,32.00
2017-08-25T14:15:25.960Z,32.30
2017-08-25T14:17:53.583Z,32.40
2017-08-25T14:20:21.190Z,32.50
2017-08-25T14:22:48.818Z,32.30
2017-08-25T14:25:16.504Z,31.80
2017-08-25T14:27:44.232Z,31.90
2017-08-25T14:30:11.853Z,32.10
2017-08-25T14:32:40.275Z,31.90
2017-08-25T14:35:07.907Z,31.80
2017-08-25T14:37:35.817Z,31.60
2017-08-25T14:40:03.454Z,31.80
2017-08-25T14:42:31.059Z,31.90
2017-08-25T14:44:58.757Z,31.90
2017-08-25T14:47:26.349Z,31.70
2017-08-25T14:49:54.355Z,31.60
2017-08-25T14:52:21.961Z,31.40
2017-08-25T14:54:49.586Z,31.30
2017-08-25T14:57:17.646Z,31.50
2017-08-25T14:59:45.290Z,31.40
2017-08-25T15:02:12.926Z,31.20
2017-08-25T15:04:40.947Z,31.10
2017-08-25T15:07:08.689Z,31.20
2017-08-25T15:09:36.884Z,31.00
2017-08-25T15:12:05.698Z,30.90
2017-08-25T15:14:34.829Z,30.90
2017-08-25T15:17:02.500Z,30.80
2017-08-25T15:19:30.583Z,30.90
2017-08-25T15:21:58.205Z,30.80
2017-08-25T15:24:25.861Z,30.80
2017-08-25T15:26:53.920Z,31.00
2017-08-25T15:29:21.544Z,31.10
2017-08-25T15:31:49.190Z,31.20
2017-08-25T15:34:17.307Z,31.20
2017-08-25T15:36:44.932Z,31.30
2017-08-25T15:39:12.538Z,31.00
2017-08-25T15:41:40.617Z,30.80
2017-08-25T15:44:08.252Z,30.80
2017-08-25T15:46:35.994Z,30.70
2017-08-25T15:49:04.107Z,30.70
2017-08-25T15:51:31.741Z,30.70
2017-08-25T15:53:59.377Z,30.70
2017-08-25T15:56:27.381Z,30.80
2017-08-25T15:58:55.010Z,30.90
2017-08-25T16:01:23.987Z,30.80
2017-08-25T16:03:52.057Z,30.90
2017-08-25T16:06:19.731Z,31.00
2017-08-25T16:08:47.346Z,31.00
2017-08-25T16:11:15.381Z,31.10
2017-08-25T16:13:43.309Z,31.00
2017-08-25T16:16:10.905Z,30.80
2017-08-25T16:18:38.990Z,30.80
2017-08-25T16:21:06.586Z,30.80
2017-08-25T16:23:34.225Z,30.80
2017-08-25T16:26:02.255Z,30.80
2017-08-25T16:28:29.875Z,30.70
2017-08-25T16:30:58.267Z,30.50
2017-08-25T16:33:26.338Z,30.60
2017-08-25T16:35:53.951Z,30.60
2017-08-25T16:38:21.563Z,30.60
2017-08-25T16:40:49.598Z,30.60
2017-08-25T16:43:17.218Z,30.60
2017-08-25T16:45:44.815Z,30.70
2017-08-25T16:48:12.877Z,30.60
2017-08-25T16:50:40.473Z,30.60
2017-08-25T16:53:08.074Z,30.60
2017-08-25T16:55:37.330Z,30.50
2017-08-25T16:58:04.929Z,30.60
2017-08-25T17:00:32.599Z,30.60
2017-08-25T17:03:00.564Z,30.60
2017-08-25T17:05:28.239Z,30.50
2017-08-25T17:07:55.849Z,30.40
2017-08-25T17:10:23.890Z,30.30
2017-08-25T17:12:51.477Z,30.30
2017-08-25T17:15:19.077Z,30.20
2017-08-25T17:17:47.050Z,30.00
2017-08-25T17:20:14.658Z,29.90
2017-08-25T17:22:42.311Z,29.90
2017-08-25T17:25:10.384Z,29.80
2017-08-25T17:27:37.985Z,29.80
2017-08-25T17:30:06.387Z,29.70
2017-08-25T17:32:34.488Z,29.60
2017-08-25T17:35:02.098Z,29.60
2017-08-25T17:37:30.288Z,29.50
2017-08-25T17:39:58.318Z,29.40
2017-08-25T17:42:25.922Z,29.30
2017-08-25T17:44:53.736Z,29.20
2017-08-25T17:47:21.795Z,29.10
2017-08-25T17:49:49.398Z,29.10
2017-08-25T17:52:17.010Z,29.00
2017-08-25T17:54:44.976Z,29.00
2017-08-25T17:57:12.597Z,28.90
2017-08-25T17:59:40.204Z,28.80
2017-08-25T18:02:08.276Z,28.70
2017-08-25T18:04:35.887Z,28.70
2017-08-25T18:07:03.515Z,28.70
2017-08-25T18:09:31.587Z,28.70
2017-08-25T18:11:59.233Z,28.60
2017-08-25T18:14:26.845Z,28.70
2017-08-25T18:16:54.857Z,28.60
2017-08-25T18:19:22.502Z,28.70
2017-08-25T18:21:50.104Z,28.60
2017-08-25T18:24:18.164Z,28.50
2017-08-25T18:26:45.756Z,28.40
2017-08-25T18:29:13.375Z,28.40
2017-08-25T18:31:41.342Z,28.30
2017-08-25T18:34:08.965Z,28.20
2017-08-25T18:36:36.575Z,28.00
2017-08-25T18:39:04.656Z,28.00
2017-08-25T18:41:33.049Z,27.90
2017-08-25T18:44:00.672Z,27.90
2017-08-25T18:46:28.661Z,28.00
2017-08-25T18:48:56.279Z,28.00
2017-08-25T18:51:24.098Z,28.10
2017-08-25T18:53:52.136Z,28.00
2017-08-25T18:56:20.596Z,28.00
2017-08-25T18:58:48.301Z,27.80
2017-08-25T19:01:16.550Z,27.60
2017-08-25T19:03:44.186Z,27.40
2017-08-25T19:06:11.809Z,27.20
2017-08-25T19:08:39.794Z,27.40
2017-08-25T19:11:08.032Z,27.60
2017-08-25T19:13:35.725Z,27.60
2017-08-25T19:16:03.774Z,27.60
2017-08-25T19:18:34.627Z,27.60
2017-08-25T19:21:06.434Z,27.40
2017-08-25T19:23:34.474Z,27.30
2017-08-25T19:26:02.071Z,27.40
2017-08-25T19:28:30.268Z,27.30
2017-08-25T19:30:58.286Z,27.20
2017-08-25T19:33:26.043Z,27.20
2017-08-25T19:35:54.090Z,27.20
2017-08-25T19:38:21.724Z,27.10
2017-08-25T19:40:49.309Z,27.00
2017-08-25T19:43:17.363Z,27.10
2017-08-25T19:45:45.091Z,27.00
2017-08-25T19:48:13.595Z,27.00
2017-08-25T19:50:41.591Z,27.00
2017-08-25T19:53:09.199Z,27.00
2017-08-25T19:55:36.810Z,26.90
2017-08-25T19:58:04.889Z,27.00
2017-08-25T20:00:32.586Z,27.00
2017-08-25T20:03:00.342Z,26.80
2017-08-25T20:05:28.361Z,26.80
2017-08-25T20:07:55.965Z,26.80
2017-08-25T20:10:23.574Z,26.90
2017-08-25T20:12:51.702Z,26.80
2017-08-25T20:15:19.310Z,26.80
2017-08-25T20:17:46.934Z,26.80
2017-08-25T20:20:14.957Z,26.80
2017-08-25T20:22:42.596Z,26.90
2017-08-25T20:25:10.207Z,26.80
2017-08-25T20:27:38.241Z,26.70
2017-08-25T20:30:06.732Z,26.70
2017-08-25T20:32:35.143Z,26.60
2017-08-25T20:35:03.173Z,26.60
2017-08-25T20:37:30.805Z,26.60
2017-08-25T20:39:58.427Z,26.50
2017-08-25T20:42:26.436Z,26.40
2017-08-25T20:44:54.069Z,26.40
2017-08-25T20:47:21.683Z,26.40
2017-08-25T20:49:49.759Z,26.30
2017-08-25T20:52:18.202Z,26.30
2017-08-25T20:54:45.797Z,26.30
2017-08-25T20:57:13.755Z,26.20
2017-08-25T20:59:41.377Z,26.20
2017-08-25T21:02:09.021Z,26.20
2017-08-25T21:04:36.975Z,26.20
2017-08-25T21:07:04.594Z,26.10
2017-08-25T21:09:32.205Z,26.10
2017-08-25T21:12:00.970Z,26.10
2017-08-25T21:14:28.607Z,26.10
2017-08-25T21:16:56.209Z,26.00
2017-08-25T21:19:24.332Z,25.80
2017-08-25T21:21:51.933Z,25.80
2017-08-25T21:24:19.523Z,25.80
2017-08-25T21:26:47.926Z,25.80
2017-08-25T21:29:15.537Z,25.80
2017-08-25T21:31:43.165Z,25.80
2017-08-25T21:34:11.166Z,25.80
2017-08-25T21:36:38.784Z,25.80
2017-08-25T21:39:06.675Z,25.80
2017-08-25T21:41:34.657Z,25.80
2017-08-25T21:44:02.261Z,25.70
2017-08-25T21:46:29.865Z,25.70
2017-08-25T21:48:57.884Z,25.70
2017-08-25T21:51:25.506Z,25.60
2017-08-25T21:53:53.119Z,25.60
2017-08-25T21:56:21.148Z,25.60
2017-08-25T21:58:48.760Z,25.40
2017-08-25T22:01:17.190Z,25.50
2017-08-25T22:03:45.345Z,25.40
2017-08-25T22:06:12.953Z,25.30
2017-08-25T22:08:40.566Z,25.30
2017-08-25T22:11:08.549Z,25.00
2017-08-25T22:13:36.158Z,24.80
2017-08-25T22:16:03.841Z,24.80
2017-08-25T22:18:31.858Z,25.00
2017-08-25T22:20:59.471Z,25.00
2017-08-25T22:23:27.064Z,25.10
2017-08-25T22:25:54.776Z,25.10
2017-08-25T22:28:22.379Z,25.10
